createdAt,value
2019-02-04T00:02:19.078Z,12.27
2019-02-04T00:07:37.774Z,14.13
2019-02-04T00:12:56.395Z,13.13
2019-02-04T00:18:15.066Z,12.63
2019-02-04T00:23:35.192Z,16.63
2019-02-04T00:28:53.776Z,18.93
2019-02-04T00:34:12.599Z,17.07
2019-02-04T00:39:31.214Z,17.43
2019-02-04T00:44:50.127Z,19.07
2019-02-04T00:50:12.009Z,20.17
2019-02-04T00:55:30.658Z,22.70
2019-02-04T01:00:49.356Z,22.27
2019-02-04T01:06:08.000Z,22.13
2019-02-04T01:11:26.641Z,21.73
2019-02-04T01:16:45.947Z,22.53
2019-02-04T01:22:04.668Z,22.33
2019-02-04T01:27:23.277Z,14.60
2019-02-04T01:32:41.753Z,20.95
2019-02-04T01:38:00.295Z,20.27
2019-02-04T01:43:18.785Z,17.20
2019-02-04T01:48:37.620Z,18.33
2019-02-04T01:53:56.195Z,17.57
2019-02-04T01:59:15.058Z,18.43
2019-02-04T02:04:34.318Z,17.80
2019-02-04T02:09:52.976Z,18.23
2019-02-04T02:15:11.579Z,17.85
2019-02-04T02:20:30.593Z,20.80
2019-02-04T02:25:49.255Z,21.00
2019-02-04T02:31:07.875Z,23.63
2019-02-04T02:36:26.694Z,20.77
2019-02-04T02:41:45.246Z,20.53
2019-02-04T02:47:03.806Z,24.33
2019-02-04T02:52:22.359Z,23.60
2019-02-04T02:57:41.057Z,24.97
2019-02-04T03:03:00.924Z,24.07
2019-02-04T03:08:19.423Z,20.03
2019-02-04T03:13:38.081Z,21.07
2019-02-04T03:18:56.643Z,19.17
2019-02-04T03:24:15.218Z,20.97
2019-02-04T03:29:33.790Z,19.93
2019-02-04T03:34:52.279Z,19.73
2019-02-04T03:40:14.099Z,17.77
2019-02-04T03:45:32.708Z,18.80
2019-02-04T03:50:51.260Z,18.13
2019-02-04T03:56:09.877Z,18.47
2019-02-04T04:01:29.166Z,17.80
2019-02-04T04:06:47.809Z,18.97
2019-02-04T04:12:06.409Z,16.73
2019-02-04T04:17:25.255Z,17.10
2019-02-04T04:22:43.883Z,14.73
2019-02-04T04:28:02.426Z,14.07
2019-02-04T04:33:21.040Z,15.15
2019-02-04T04:38:39.531Z,14.67
2019-02-04T04:43:58.153Z,13.90
2019-02-04T04:49:16.699Z,14.73
2019-02-04T04:54:35.471Z,15.73
2019-02-04T04:59:54.357Z,14.93
2019-02-04T05:05:14.477Z,14.15
2019-02-04T05:10:33.030Z,15.60
2019-02-04T05:15:51.796Z,15.37
2019-02-04T05:21:10.410Z,15.50
2019-02-04T05:26:29.052Z,14.10
2019-02-04T05:31:47.602Z,13.50
2019-02-04T05:37:06.251Z,12.50
2019-02-04T05:42:24.799Z,14.33
2019-02-04T05:47:43.431Z,13.13
2019-02-04T05:53:03.858Z,11.80
2019-02-04T05:58:22.440Z,9.77
2019-02-04T06:03:41.361Z,11.87
2019-02-04T06:09:00.102Z,10.53
2019-02-04T06:14:18.750Z,11.70
2019-02-04T06:19:37.519Z,11.60
2019-02-04T06:24:56.148Z,10.27
2019-02-04T06:30:16.634Z,9.03
2019-02-04T06:35:35.274Z,9.03
2019-02-04T06:40:53.881Z,10.93
2019-02-04T06:46:12.519Z,10.70
2019-02-04T06:51:31.123Z,10.47
2019-02-04T06:56:49.637Z,10.93
2019-02-04T07:02:08.304Z,10.30
2019-02-04T07:07:26.928Z,10.83
2019-02-04T07:12:45.791Z,10.23
2019-02-04T07:18:04.404Z,8.47
2019-02-04T07:23:23.000Z,11.23
2019-02-04T07:28:41.645Z,7.60
2019-02-04T07:34:00.186Z,9.37
2019-02-04T07:39:18.739Z,8.37
2019-02-04T07:44:37.297Z,9.07
2019-02-04T07:49:55.841Z,9.20
2019-02-04T07:55:14.846Z,9.83
2019-02-04T08:00:36.417Z,9.27
2019-02-04T08:05:54.961Z,9.43
2019-02-04T08:11:13.581Z,9.43
2019-02-04T08:16:32.070Z,9.37
2019-02-04T08:21:50.686Z,8.13
2019-02-04T08:27:09.317Z,8.17
2019-02-04T08:32:27.862Z,9.23
2019-02-04T08:37:46.489Z,9.23
2019-02-04T08:43:05.207Z,9.70
2019-02-04T08:48:23.842Z,8.70
2019-02-04T08:53:42.404Z,7.43
2019-02-04T08:59:01.021Z,7.47
2019-02-04T09:04:19.747Z,6.00
2019-02-04T09:09:38.433Z,7.03
2019-02-04T09:14:56.973Z,7.17
2019-02-04T09:20:17.740Z,7.45
2019-02-04T09:25:36.386Z,6.73
2019-02-04T09:30:55.089Z,7.90
2019-02-04T09:36:13.697Z,7.53
2019-02-04T09:41:32.275Z,7.40
2019-02-04T09:46:51.133Z,6.33
2019-02-04T09:52:09.813Z,6.90
2019-02-04T09:57:28.503Z,7.10
2019-02-04T10:02:47.141Z,6.85
2019-02-04T10:08:06.751Z,6.58
2019-02-04T10:13:25.398Z,6.80
2019-02-04T10:18:43.927Z,7.60
2019-02-04T10:24:02.540Z,6.40
2019-02-04T10:29:21.276Z,6.43
2019-02-04T10:34:39.877Z,7.37
2019-02-04T10:39:58.631Z,6.77
2019-02-04T10:45:18.891Z,6.12
2019-02-04T10:50:46.122Z,6.07
2019-02-04T10:55:59.880Z,6.47
2019-02-04T11:01:19.045Z,6.13
2019-02-04T11:06:37.728Z,5.27
2019-02-04T11:11:56.311Z,5.70
2019-02-04T11:17:15.089Z,5.13
2019-02-04T11:22:33.689Z,4.80
2019-02-04T11:27:52.268Z,5.00
2019-02-04T11:33:11.096Z,3.67
2019-02-04T11:38:29.739Z,4.60
2019-02-04T11:43:48.221Z,3.70
2019-02-04T11:49:06.817Z,4.20
2019-02-04T11:54:25.429Z,4.20
2019-02-04T11:59:44.256Z,4.30
2019-02-04T12:05:02.763Z,3.30
2019-02-04T12:10:24.283Z,4.33
2019-02-04T12:15:42.897Z,3.97
2019-02-04T12:21:01.470Z,3.60
2019-02-04T12:26:20.015Z,3.73
2019-02-04T12:31:38.624Z,4.27
2019-02-04T12:36:57.256Z,3.73
2019-02-04T12:42:16.111Z,2.27
2019-02-04T12:47:36.112Z,4.20
2019-02-04T12:52:54.726Z,4.37
2019-02-04T12:58:13.342Z,3.73
2019-02-04T13:03:31.948Z,4.03
2019-02-04T13:08:50.485Z,4.13
2019-02-04T13:14:09.282Z,3.73
2019-02-04T13:19:27.828Z,4.70
2019-02-04T13:24:46.430Z,4.87
2019-02-04T13:30:11.209Z,4.37
2019-02-04T13:35:31.096Z,4.47
2019-02-04T13:40:49.727Z,4.10
2019-02-04T13:46:08.334Z,4.37
2019-02-04T13:51:26.953Z,4.40
2019-02-04T13:56:49.532Z,4.40
2019-02-04T14:02:08.686Z,3.07
2019-02-04T14:07:27.297Z,4.47
2019-02-04T14:12:46.495Z,4.13
2019-02-04T14:18:06.219Z,3.93
2019-02-04T14:23:27.468Z,3.60
2019-02-04T14:28:45.356Z,3.60
2019-02-04T14:34:06.357Z,4.72
2019-02-04T14:39:25.121Z,3.30
2019-02-04T14:44:45.127Z,4.57
2019-02-04T14:50:12.329Z,4.00
2019-02-04T14:55:46.092Z,3.97
2019-02-04T15:01:36.210Z,2.87
2019-02-04T15:07:00.577Z,4.10
2019-02-04T15:12:38.655Z,3.40
2019-02-04T15:18:11.387Z,3.10
2019-02-04T15:23:44.869Z,3.50
2019-02-04T15:29:09.261Z,4.73
2019-02-04T15:34:36.267Z,4.17
2019-02-04T15:40:00.851Z,3.57
2019-02-04T15:45:56.911Z,3.80
2019-02-04T15:51:24.504Z,3.63
2019-02-04T15:56:43.285Z,2.83
2019-02-04T16:02:01.905Z,3.00
2019-02-04T16:07:20.445Z,3.40
2019-02-04T16:12:39.075Z,2.83
2019-02-04T16:17:57.628Z,2.80
2019-02-04T16:23:16.236Z,3.00
2019-02-04T16:28:34.769Z,2.40
2019-02-04T16:33:53.460Z,3.20
2019-02-04T16:39:12.407Z,2.80
2019-02-04T16:44:31.087Z,2.57
2019-02-04T16:49:49.688Z,2.20
2019-02-04T16:55:08.901Z,2.10
2019-02-04T17:00:29.629Z,2.83
2019-02-04T17:05:48.317Z,2.57
2019-02-04T17:11:06.922Z,2.87
2019-02-04T17:16:25.806Z,2.83
2019-02-04T17:21:44.617Z,1.90
2019-02-04T17:27:03.210Z,2.73
2019-02-04T17:32:22.261Z,2.90
2019-02-04T17:37:40.882Z,2.70
2019-02-04T17:42:59.497Z,2.90
2019-02-04T17:48:18.139Z,2.47
2019-02-04T17:53:36.746Z,2.33
2019-02-04T17:58:55.359Z,2.77
2019-02-04T18:04:13.968Z,2.17
2019-02-04T18:09:32.516Z,2.97
2019-02-04T18:14:51.170Z,2.60
2019-02-04T18:20:11.664Z,2.67
2019-02-04T18:25:30.293Z,2.73
2019-02-04T18:30:48.859Z,2.73
2019-02-04T18:36:07.488Z,1.67
2019-02-04T18:41:26.237Z,2.40
2019-02-04T18:46:44.810Z,2.20
2019-02-04T18:52:03.460Z,2.30
2019-02-04T18:57:22.345Z,2.10
2019-02-04T19:02:43.815Z,2.40
2019-02-04T19:08:02.440Z,1.63
2019-02-04T19:13:21.072Z,1.83
2019-02-04T19:18:39.654Z,2.37
2019-02-04T19:24:09.067Z,2.13
2019-02-04T19:29:18.812Z,2.53
2019-02-04T19:34:37.802Z,2.70
2019-02-04T19:39:56.330Z,2.60
2019-02-04T19:45:20.371Z,3.10
2019-02-04T19:50:39.368Z,3.07
2019-02-04T19:55:58.393Z,3.10
2019-02-04T20:01:16.992Z,3.57
2019-02-04T20:06:35.566Z,2.97
2019-02-04T20:11:54.319Z,3.67
2019-02-04T20:17:12.890Z,3.27
2019-02-04T20:22:31.565Z,2.93
2019-02-04T20:27:50.360Z,3.67
2019-02-04T20:33:10.571Z,3.83
2019-02-04T20:38:29.407Z,3.60
2019-02-04T20:43:55.946Z,1.93
2019-02-04T20:49:14.606Z,2.83
2019-02-04T20:54:44.547Z,3.80
2019-02-04T20:59:53.559Z,3.73
2019-02-04T21:05:12.743Z,3.87
2019-02-04T21:10:31.762Z,3.97
2019-02-04T21:15:50.339Z,4.23
2019-02-04T21:21:09.009Z,3.33
2019-02-04T21:26:27.837Z,2.80
2019-02-04T21:31:46.328Z,3.50
2019-02-04T21:37:31.281Z,3.90
2019-02-04T21:42:54.090Z,3.93
2019-02-04T21:48:12.792Z,4.03
2019-02-04T21:53:31.341Z,3.97
2019-02-04T21:58:49.957Z,3.53
2019-02-04T22:04:08.675Z,3.47
2019-02-04T22:09:27.225Z,3.97
2019-02-04T22:14:45.773Z,4.03
2019-02-04T22:20:09.373Z,4.20
2019-02-04T22:25:28.078Z,4.17
2019-02-04T22:30:49.801Z,3.93
2019-02-04T22:36:08.545Z,4.17
2019-02-04T22:41:27.175Z,3.95
2019-02-04T22:46:45.755Z,3.80
2019-02-04T22:52:04.676Z,4.10
2019-02-04T22:57:23.300Z,5.07
2019-02-04T23:02:42.083Z,4.33
2019-02-04T23:08:00.699Z,4.15
2019-02-04T23:13:19.340Z,4.27
2019-02-04T23:18:37.889Z,4.90
2019-02-04T23:23:56.503Z,2.10
2019-02-04T23:29:15.127Z,5.23
2019-02-04T23:34:33.667Z,5.10
2019-02-04T23:39:52.204Z,4.97
2019-02-04T23:45:11.826Z,4.50
2019-02-04T23:50:30.746Z,4.33
2019-02-04T23:55:54.750Z,5.77
